createdAt,value
2023-02-11T00:01:42.942Z,19.55
2023-02-11T00:04:12.154Z,19.00
2023-02-11T00:06:40.247Z,21.25
2023-02-11T00:09:08.494Z,20.60
2023-02-11T00:11:36.456Z,19.85
2023-02-11T00:14:07.945Z,21.77
2023-02-11T00:16:36.084Z,19.40
2023-02-11T00:19:06.090Z,19.98
2023-02-11T00:21:36.122Z,19.27
2023-02-11T00:24:04.238Z,19.80
2023-02-11T00:26:34.252Z,20.88
2023-02-11T00:29:03.102Z,19.63
2023-02-11T00:31:32.839Z,18.98
2023-02-11T00:34:00.798Z,18.42
2023-02-11T00:36:30.667Z,18.92
2023-02-11T00:39:00.793Z,19.50
2023-02-11T00:41:29.294Z,19.25
2023-02-11T00:43:57.376Z,19.00
2023-02-11T00:46:25.329Z,18.77
2023-02-11T00:48:55.066Z,18.85
2023-02-11T00:51:23.049Z,18.73
2023-02-11T00:53:51.471Z,19.60
2023-02-11T00:56:21.169Z,20.20
2023-02-11T00:58:49.136Z,19.90
2023-02-11T01:01:18.518Z,20.70
2023-02-11T01:03:46.410Z,19.17
2023-02-11T01:06:14.355Z,19.92
2023-02-11T01:08:42.408Z,19.08
2023-02-11T01:11:15.105Z,19.80
2023-02-11T01:13:47.976Z,19.75
2023-02-11T01:16:17.727Z,18.92
2023-02-11T01:18:47.045Z,19.20
2023-02-11T01:21:15.005Z,18.83
2023-02-11T01:23:44.323Z,18.95
2023-02-11T01:26:12.992Z,19.20
2023-02-11T01:28:41.002Z,19.75
2023-02-11T01:31:10.313Z,19.05
2023-02-11T01:33:38.245Z,19.17
2023-02-11T01:36:08.767Z,18.35
2023-02-11T01:38:37.093Z,19.58
2023-02-11T01:41:07.512Z,19.40
2023-02-11T01:43:39.035Z,18.20
2023-02-11T01:46:24.587Z,18.40
2023-02-11T01:48:56.733Z,18.27
2023-02-11T01:51:28.664Z,19.08
2023-02-11T01:54:15.710Z,19.40
2023-02-11T01:57:04.720Z,19.15
2023-02-11T01:59:38.721Z,18.73
2023-02-11T02:02:13.010Z,19.30
2023-02-11T02:04:46.287Z,18.02
2023-02-11T02:07:38.553Z,19.02
2023-02-11T02:10:12.422Z,20.67
2023-02-11T02:12:40.348Z,20.52
2023-02-11T02:15:23.445Z,19.73
2023-02-11T02:17:59.896Z,18.85
2023-02-11T02:20:53.748Z,20.92
2023-02-11T02:26:39.293Z,19.38
2023-02-11T02:29:29.215Z,19.88
2023-02-11T02:32:27.164Z,19.77
2023-02-11T02:35:02.784Z,19.60
2023-02-11T02:37:35.987Z,19.35
2023-02-11T02:42:34.417Z,18.75
2023-02-11T02:45:02.373Z,19.77
2023-02-11T02:47:31.696Z,20.25
2023-02-11T02:49:59.586Z,19.63
2023-02-11T02:52:37.455Z,18.55
2023-02-11T02:55:21.692Z,19.83
2023-02-11T02:58:07.311Z,19.63
2023-02-11T03:00:44.283Z,21.17
2023-02-11T03:03:28.146Z,21.90
2023-02-11T03:06:01.981Z,20.25
2023-02-11T03:08:35.613Z,21.38
2023-02-11T03:11:05.688Z,21.23
2023-02-11T03:13:36.930Z,22.02
2023-02-11T03:16:10.874Z,20.35
2023-02-11T03:18:43.392Z,21.50
2023-02-11T03:21:12.597Z,22.27
2023-02-11T03:23:45.451Z,21.65
2023-02-11T03:26:19.829Z,21.85
2023-02-11T03:28:55.052Z,22.23
2023-02-11T03:31:29.663Z,22.50
2023-02-11T03:34:03.842Z,21.45
2023-02-11T03:36:38.595Z,21.02
2023-02-11T03:39:08.345Z,22.80
2023-02-11T03:41:37.624Z,22.20
2023-02-11T03:44:07.382Z,21.55
2023-02-11T03:46:40.137Z,21.25
2023-02-11T03:49:12.175Z,22.15
2023-02-11T03:51:41.365Z,23.02
2023-02-11T03:54:13.507Z,20.75
2023-02-11T03:56:48.142Z,21.63
2023-02-11T03:59:16.037Z,21.88
2023-02-11T04:01:43.981Z,22.85
2023-02-11T04:04:13.248Z,22.00
2023-02-11T04:06:41.178Z,21.27
2023-02-11T04:09:09.061Z,21.48
2023-02-11T04:11:36.897Z,23.33
2023-02-11T04:14:05.074Z,22.67
2023-02-11T04:16:33.128Z,22.55
2023-02-11T04:19:01.622Z,22.80
2023-02-11T04:21:30.825Z,22.27
2023-02-11T04:23:58.666Z,22.73
2023-02-11T04:26:26.568Z,23.25
2023-02-11T04:28:54.475Z,21.20
2023-02-11T04:31:22.441Z,23.85
2023-02-11T04:33:50.350Z,22.75
2023-02-11T04:36:18.202Z,23.38
2023-02-11T04:38:47.402Z,24.13
2023-02-11T04:41:15.525Z,23.20
2023-02-11T04:43:43.412Z,24.50
2023-02-11T04:46:11.378Z,24.35
2023-02-11T04:48:39.352Z,24.10
2023-02-11T04:51:07.599Z,23.77
2023-02-11T04:53:35.489Z,23.38
2023-02-11T04:56:05.057Z,25.95
2023-02-11T04:58:33.091Z,25.05
2023-02-11T05:01:07.065Z,23.80
2023-02-11T05:03:35.362Z,24.42
2023-02-11T05:06:03.844Z,25.75
2023-02-11T05:08:31.781Z,25.63
2023-02-11T05:11:02.115Z,24.13
2023-02-11T05:13:32.025Z,25.85
2023-02-11T05:15:59.898Z,24.23
2023-02-11T05:18:27.766Z,24.08
2023-02-11T05:20:55.773Z,26.55
2023-02-11T05:23:23.633Z,24.08
2023-02-11T05:25:51.723Z,26.85
2023-02-11T05:28:19.893Z,26.67
2023-02-11T05:30:49.192Z,24.17
2023-02-11T05:33:17.130Z,26.55
2023-02-11T05:35:45.054Z,26.45
2023-02-11T05:38:13.086Z,26.67
2023-02-11T05:40:40.937Z,26.17
2023-02-11T05:43:08.864Z,26.05
2023-02-11T05:45:36.751Z,25.83
2023-02-11T05:48:06.413Z,26.13
2023-02-11T05:50:34.362Z,27.67
2023-02-11T05:53:02.272Z,28.13
2023-02-11T05:55:30.306Z,26.33
2023-02-11T05:57:58.628Z,26.23
2023-02-11T06:00:27.083Z,26.08
2023-02-11T06:02:55.225Z,27.70
2023-02-11T06:05:24.516Z,27.15
2023-02-11T06:07:52.398Z,26.88
2023-02-11T06:10:20.304Z,27.75
2023-02-11T06:12:48.319Z,27.08
2023-02-11T06:15:16.177Z,27.67
2023-02-11T06:17:44.019Z,28.75
2023-02-11T06:20:12.948Z,28.65
2023-02-11T06:22:42.329Z,29.52
2023-02-11T06:25:10.982Z,29.25
2023-02-11T06:27:39.420Z,28.67
2023-02-11T06:30:08.750Z,28.00
2023-02-11T06:32:44.428Z,29.65
2023-02-11T06:35:13.858Z,29.63
2023-02-11T06:37:43.883Z,28.52
2023-02-11T06:40:12.489Z,30.10
2023-02-11T06:42:40.641Z,28.73
2023-02-11T06:45:11.021Z,30.35
2023-02-11T06:47:39.230Z,30.30
2023-02-11T06:50:09.553Z,28.40
2023-02-11T06:52:37.475Z,31.52
2023-02-11T06:55:07.479Z,31.73
2023-02-11T06:57:35.463Z,29.48
2023-02-11T07:00:03.732Z,29.40
2023-02-11T07:02:32.211Z,29.15
2023-02-11T07:05:00.154Z,32.15
2023-02-11T07:07:29.078Z,29.58
2023-02-11T07:09:56.996Z,29.25
2023-02-11T07:12:26.348Z,29.48
2023-02-11T07:14:54.273Z,29.30
2023-02-11T07:17:22.234Z,30.85
2023-02-11T07:19:50.234Z,30.65
2023-02-11T07:22:18.196Z,29.27
2023-02-11T07:24:46.396Z,29.60
2023-02-11T07:27:14.476Z,28.75
2023-02-11T07:29:45.976Z,28.75
2023-02-11T07:32:14.475Z,28.88
2023-02-11T07:34:42.549Z,28.50
2023-02-11T07:37:10.956Z,29.38
2023-02-11T07:39:38.978Z,30.20
2023-02-11T07:42:07.424Z,28.02
2023-02-11T07:44:37.320Z,31.25
2023-02-11T07:47:06.967Z,28.20
2023-02-11T07:49:34.960Z,28.90
2023-02-11T07:52:02.870Z,27.95
2023-02-11T07:54:30.824Z,28.40
2023-02-11T07:56:58.827Z,29.88
2023-02-11T07:59:27.492Z,28.17
2023-02-11T08:01:55.532Z,28.00
2023-02-11T08:04:24.881Z,27.60
2023-02-11T08:06:56.481Z,28.58
2023-02-11T08:09:25.993Z,30.05
2023-02-11T08:11:53.981Z,26.83
2023-02-11T08:14:21.990Z,28.88
2023-02-11T08:16:50.006Z,27.27
2023-02-11T08:19:18.211Z,28.42
2023-02-11T08:21:47.507Z,27.08
2023-02-11T08:24:15.465Z,26.95
2023-02-11T08:26:44.281Z,29.00
2023-02-11T08:29:14.501Z,26.35
2023-02-11T08:31:44.862Z,28.75
2023-02-11T08:34:14.571Z,27.48
2023-02-11T08:36:44.827Z,27.40
2023-02-11T08:39:20.346Z,25.95
2023-02-11T08:41:49.801Z,27.95
2023-02-11T08:44:17.970Z,28.83
2023-02-11T08:46:46.047Z,28.20
2023-02-11T08:49:15.053Z,26.52
2023-02-11T08:51:43.397Z,27.52
2023-02-11T08:54:11.436Z,27.48
2023-02-11T08:56:41.187Z,26.73
2023-02-11T08:59:10.211Z,27.38
2023-02-11T09:01:38.261Z,27.30
2023-02-11T09:04:06.555Z,27.05
2023-02-11T09:06:34.696Z,28.00
2023-02-11T09:09:02.649Z,27.38
2023-02-11T09:11:33.733Z,26.65
2023-02-11T09:14:04.386Z,26.63
2023-02-11T09:16:34.447Z,26.20
2023-02-11T09:19:04.363Z,25.65
2023-02-11T09:21:32.669Z,25.75
2023-02-11T09:24:00.724Z,24.80
2023-02-11T09:26:31.226Z,25.75
2023-02-11T09:29:00.036Z,25.08
2023-02-11T09:31:31.478Z,25.13
2023-02-11T09:34:13.751Z,24.45
2023-02-11T09:36:43.294Z,24.05
2023-02-11T09:39:14.593Z,25.40
2023-02-11T09:42:00.722Z,25.25
2023-02-11T09:44:31.009Z,23.58
2023-02-11T09:47:03.945Z,23.52
2023-02-11T09:49:40.034Z,23.40
2023-02-11T09:52:13.422Z,24.17
2023-02-11T09:54:50.779Z,23.90
2023-02-11T09:57:28.351Z,23.98
2023-02-11T09:59:57.744Z,24.38
2023-02-11T10:02:36.437Z,23.88
2023-02-11T10:05:18.921Z,23.70
2023-02-11T10:07:52.669Z,17.20
2023-02-11T10:10:36.913Z,24.30
2023-02-11T10:13:26.277Z,24.27
2023-02-11T10:16:05.389Z,22.50
2023-02-11T10:18:47.490Z,24.17
2023-02-11T10:21:27.820Z,22.02
2023-02-11T10:24:01.425Z,23.48
2023-02-11T10:26:32.155Z,22.48
2023-02-11T10:29:03.380Z,24.27
2023-02-11T10:31:38.753Z,22.70
2023-02-11T10:34:12.176Z,22.83
2023-02-11T10:36:42.460Z,23.75
2023-02-11T10:39:15.619Z,23.58
2023-02-11T10:44:23.916Z,22.85
2023-02-11T10:46:52.496Z,22.73
2023-02-11T10:49:43.825Z,23.98
2023-02-11T10:52:19.499Z,22.95
2023-02-11T10:55:06.902Z,22.88
2023-02-11T10:57:37.531Z,23.10
2023-02-11T11:00:24.239Z,23.48
2023-02-11T11:02:59.445Z,20.75
2023-02-11T11:05:32.597Z,23.05
2023-02-11T11:08:03.081Z,22.33
2023-02-11T11:10:37.514Z,23.48
2023-02-11T11:13:05.481Z,24.17
2023-02-11T11:15:33.614Z,21.80
2023-02-11T11:18:21.963Z,23.20
2023-02-11T11:21:01.010Z,21.58
2023-02-11T11:23:30.165Z,21.73
2023-02-11T11:26:07.371Z,22.77
2023-02-11T11:28:40.386Z,21.35
2023-02-11T11:31:16.123Z,20.00
2023-02-11T11:33:45.526Z,19.75
2023-02-11T11:36:17.670Z,20.98
2023-02-11T11:38:50.310Z,20.67
2023-02-11T11:41:22.326Z,20.33
2023-02-11T11:43:58.865Z,19.08
2023-02-11T11:46:29.751Z,19.98
2023-02-11T11:49:16.970Z,18.15
2023-02-11T11:51:57.620Z,19.40
2023-02-11T11:54:29.199Z,20.27
2023-02-11T11:57:03.691Z,18.13
2023-02-11T11:59:32.582Z,16.83
2023-02-11T12:02:18.164Z,18.48
2023-02-11T12:05:02.303Z,18.55
2023-02-11T12:07:51.368Z,18.10
2023-02-11T12:10:33.163Z,17.30
2023-02-11T12:13:14.855Z,16.83
2023-02-11T12:15:55.107Z,16.30
2023-02-11T12:18:38.718Z,16.80
2023-02-11T12:23:57.233Z,16.48
2023-02-11T12:26:32.573Z,15.15
2023-02-11T12:29:10.045Z,16.42
2023-02-11T12:31:53.577Z,20.27
2023-02-11T12:37:20.164Z,15.57
2023-02-11T12:39:52.976Z,16.23
2023-02-11T12:42:52.631Z,15.57
2023-02-11T12:45:31.649Z,15.88
2023-02-11T12:48:14.137Z,14.70
2023-02-11T12:51:00.564Z,14.40
2023-02-11T12:53:47.913Z,14.75
2023-02-11T12:56:24.105Z,14.75
2023-02-11T12:58:57.238Z,14.07
2023-02-11T13:01:30.312Z,14.45
2023-02-11T13:04:05.915Z,14.38
2023-02-11T13:06:38.475Z,14.65
2023-02-11T13:09:13.116Z,10.50
2023-02-11T13:11:51.744Z,13.02
2023-02-11T13:14:28.055Z,14.23
2023-02-11T13:16:59.779Z,13.27
2023-02-11T13:19:33.708Z,13.82
2023-02-11T13:22:12.642Z,12.60
2023-02-11T13:24:45.382Z,13.90
2023-02-11T13:27:26.234Z,13.15
2023-02-11T13:30:28.390Z,12.80
2023-02-11T13:33:21.481Z,12.85
2023-02-11T13:36:11.207Z,12.90
2023-02-11T13:38:39.951Z,13.05
2023-02-11T13:41:21.176Z,13.48
2023-02-11T13:44:02.959Z,13.95
2023-02-11T13:46:53.891Z,13.35
2023-02-11T13:49:25.417Z,12.98
2023-02-11T13:51:55.849Z,12.43
2023-02-11T13:54:29.474Z,13.73
2023-02-11T13:57:33.610Z,12.55
2023-02-11T14:05:48.645Z,12.38
2023-02-11T14:08:40.816Z,14.88
2023-02-11T14:11:31.182Z,12.13
2023-02-11T14:14:18.237Z,12.57
2023-02-11T14:17:22.757Z,12.45
2023-02-11T14:19:56.169Z,11.63
2023-02-11T14:22:28.232Z,12.07
2023-02-11T14:24:58.812Z,12.15
2023-02-11T14:27:31.568Z,11.15
2023-02-11T14:30:11.785Z,12.15
2023-02-11T14:32:51.160Z,11.40
2023-02-11T14:35:31.210Z,10.98
2023-02-11T14:38:07.627Z,10.80
2023-02-11T14:40:42.997Z,10.77
2023-02-11T14:43:14.849Z,11.18
2023-02-11T14:45:45.972Z,10.27
2023-02-11T14:48:17.661Z,10.27
2023-02-11T14:50:52.460Z,10.32
2023-02-11T14:53:25.164Z,10.05
2023-02-11T14:55:54.850Z,10.73
2023-02-11T14:58:24.792Z,10.38
2023-02-11T15:00:55.984Z,9.98
2023-02-11T15:03:36.124Z,9.75
2023-02-11T15:06:08.100Z,10.05
2023-02-11T15:08:38.856Z,9.35
2023-02-11T15:11:13.109Z,9.95
2023-02-11T15:13:47.426Z,9.25
2023-02-11T15:16:19.406Z,9.63
2023-02-11T15:18:51.673Z,9.32
2023-02-11T15:21:26.869Z,10.18
2023-02-11T15:24:03.159Z,9.50
2023-02-11T15:26:31.381Z,10.27
2023-02-11T15:28:59.582Z,8.77
2023-02-11T15:31:29.848Z,9.38
2023-02-11T15:34:08.626Z,9.23
2023-02-11T15:36:39.385Z,9.35
2023-02-11T15:39:32.397Z,8.23
2023-02-11T15:42:18.857Z,9.33
2023-02-11T15:44:52.269Z,8.95
2023-02-11T15:47:23.754Z,8.23
2023-02-11T15:49:51.706Z,8.65
2023-02-11T15:52:26.911Z,8.95
2023-02-11T15:54:57.360Z,8.35
2023-02-11T15:57:25.323Z,8.52
2023-02-11T15:59:55.054Z,8.70
2023-02-11T16:02:30.182Z,8.40
2023-02-11T16:05:00.400Z,8.63
2023-02-11T16:07:51.743Z,8.65
2023-02-11T16:10:25.610Z,8.95
2023-02-11T16:13:05.006Z,8.82
2023-02-11T16:15:45.787Z,9.52
2023-02-11T16:18:37.846Z,9.27
2023-02-11T16:21:14.555Z,8.53
2023-02-11T16:23:50.432Z,9.48
2023-02-11T16:26:25.963Z,8.98
2023-02-11T16:28:54.367Z,8.75
2023-02-11T16:31:22.538Z,8.60
2023-02-11T16:33:50.528Z,8.10
2023-02-11T16:36:18.661Z,8.60
2023-02-11T16:38:49.312Z,7.47
2023-02-11T16:41:17.251Z,7.43
2023-02-11T16:43:45.240Z,7.25
2023-02-11T16:46:16.845Z,7.43
2023-02-11T16:48:45.162Z,7.63
2023-02-11T16:51:13.238Z,7.63
2023-02-11T16:53:41.248Z,6.97
2023-02-11T16:56:16.750Z,7.13
2023-02-11T16:58:45.270Z,7.72
2023-02-11T17:01:14.277Z,7.45
2023-02-11T17:03:43.777Z,8.38
2023-02-11T17:06:12.689Z,9.50
2023-02-11T17:08:41.467Z,8.80
2023-02-11T17:11:09.369Z,9.57
2023-02-11T17:13:39.492Z,8.85
2023-02-11T17:16:13.158Z,9.32
2023-02-11T17:18:41.175Z,9.18
2023-02-11T17:21:09.379Z,8.95
2023-02-11T17:23:37.512Z,8.85
2023-02-11T17:26:06.140Z,8.35
2023-02-11T17:28:34.512Z,8.13
2023-02-11T17:31:08.260Z,7.47
2023-02-11T17:33:36.354Z,7.45
2023-02-11T17:36:06.109Z,7.25
2023-02-11T17:38:34.545Z,6.90
2023-02-11T17:41:03.470Z,7.07
2023-02-11T17:43:31.988Z,7.28
2023-02-11T17:46:00.297Z,6.30
2023-02-11T17:48:29.510Z,6.60
2023-02-11T17:50:57.482Z,6.60
2023-02-11T17:53:25.406Z,6.43
2023-02-11T17:55:53.508Z,7.07
2023-02-11T17:58:21.922Z,7.38
2023-02-11T18:00:49.886Z,7.63
2023-02-11T18:03:17.725Z,6.22
2023-02-11T18:05:47.032Z,6.53
2023-02-11T18:08:14.914Z,5.88
2023-02-11T18:10:43.392Z,6.35
2023-02-11T18:13:11.221Z,5.97
2023-02-11T18:15:39.574Z,6.47
2023-02-11T18:18:07.597Z,6.30
2023-02-11T18:20:35.504Z,6.95
2023-02-11T18:23:05.117Z,6.43
2023-02-11T18:25:33.179Z,6.50
2023-02-11T18:28:01.148Z,6.90
2023-02-11T18:30:29.176Z,6.53
2023-02-11T18:32:57.185Z,6.80
2023-02-11T18:35:25.191Z,6.82
2023-02-11T18:37:53.663Z,7.68
2023-02-11T18:40:23.287Z,6.80
2023-02-11T18:42:51.168Z,7.00
2023-02-11T18:45:19.268Z,6.63
2023-02-11T18:47:47.132Z,6.47
2023-02-11T18:50:16.086Z,6.15
2023-02-11T18:52:43.973Z,6.20
2023-02-11T18:55:12.086Z,6.10
2023-02-11T18:57:42.925Z,5.82
2023-02-11T19:00:12.027Z,6.47
2023-02-11T19:02:39.952Z,6.57
2023-02-11T19:05:08.499Z,6.97
2023-02-11T19:07:36.496Z,6.00
2023-02-11T19:10:05.312Z,6.15
2023-02-11T19:12:33.907Z,6.30
2023-02-11T19:15:03.335Z,5.85
2023-02-11T19:17:31.232Z,6.18
2023-02-11T19:19:59.195Z,5.90
2023-02-11T19:22:27.116Z,5.70
2023-02-11T19:24:54.982Z,6.13
2023-02-11T19:27:22.837Z,5.90
2023-02-11T19:29:50.721Z,6.32
2023-02-11T19:32:20.038Z,6.38
2023-02-11T19:34:47.899Z,6.15
2023-02-11T19:37:16.193Z,6.45
2023-02-11T19:39:44.496Z,6.80
2023-02-11T19:42:13.285Z,6.60
2023-02-11T19:44:41.144Z,6.70
2023-02-11T19:47:10.380Z,6.72
2023-02-11T19:49:39.725Z,7.03
2023-02-11T19:52:07.991Z,6.95
2023-02-11T19:54:35.961Z,6.28
2023-02-11T19:57:03.932Z,6.72
2023-02-11T19:59:32.317Z,6.88
2023-02-11T20:02:01.597Z,6.53
2023-02-11T20:04:32.164Z,6.88
2023-02-11T20:07:01.568Z,6.63
2023-02-11T20:09:31.144Z,6.72
2023-02-11T20:11:59.215Z,7.68
2023-02-11T20:14:28.125Z,7.43
2023-02-11T20:16:56.237Z,6.90
2023-02-11T20:19:24.103Z,6.43
2023-02-11T20:21:53.791Z,6.97
2023-02-11T20:24:24.617Z,6.70
2023-02-11T20:26:55.769Z,7.38
2023-02-11T20:29:31.067Z,6.35
2023-02-11T20:31:59.102Z,7.13
2023-02-11T20:34:27.088Z,6.43
2023-02-11T20:36:55.956Z,6.72
2023-02-11T20:39:26.795Z,6.22
2023-02-11T20:41:55.007Z,6.68
2023-02-11T20:44:23.634Z,6.05
2023-02-11T20:46:54.066Z,6.05
2023-02-11T20:49:24.365Z,5.50
2023-02-11T20:51:53.748Z,5.75
2023-02-11T20:54:22.669Z,6.38
2023-02-11T20:56:53.694Z,5.82
2023-02-11T20:59:21.978Z,6.05
2023-02-11T21:01:53.431Z,5.88
2023-02-11T21:04:24.320Z,5.95
2023-02-11T21:06:54.640Z,6.18
2023-02-11T21:09:24.346Z,5.65
2023-02-11T21:11:54.807Z,5.82
2023-02-11T21:14:24.704Z,9.52
2023-02-11T21:16:53.222Z,5.45
2023-02-11T21:19:21.226Z,5.25
2023-02-11T21:21:49.269Z,5.47
2023-02-11T21:24:17.146Z,4.57
2023-02-11T21:26:45.025Z,5.75
2023-02-11T21:29:14.249Z,5.10
2023-02-11T21:31:42.238Z,5.18
2023-02-11T21:34:11.174Z,5.55
2023-02-11T21:36:39.084Z,5.38
2023-02-11T21:39:06.986Z,5.15
2023-02-11T21:41:34.930Z,5.15
2023-02-11T21:44:02.949Z,5.25
2023-02-11T21:46:32.496Z,5.18
2023-02-11T21:49:01.047Z,5.28
2023-02-11T21:51:29.021Z,5.75
2023-02-11T21:53:58.550Z,5.25
2023-02-11T21:56:28.133Z,6.30
2023-02-11T21:58:57.374Z,4.70
2023-02-11T22:01:27.593Z,5.65
2023-02-11T22:03:57.150Z,5.35
2023-02-11T22:06:27.151Z,5.63
2023-02-11T22:08:55.947Z,5.13
2023-02-11T22:11:24.640Z,7.88
2023-02-11T22:13:55.210Z,5.57
2023-02-11T22:16:23.559Z,6.40
2023-02-11T22:18:51.575Z,6.80
2023-02-11T22:21:23.336Z,5.75
2023-02-11T22:23:52.185Z,6.45
2023-02-11T22:26:22.597Z,6.00
2023-02-11T22:28:51.493Z,6.10
2023-02-11T22:31:21.777Z,5.80
2023-02-11T22:33:49.829Z,7.10
2023-02-11T22:36:21.291Z,6.55
2023-02-11T22:38:49.948Z,6.03
2023-02-11T22:41:18.336Z,6.50
2023-02-11T22:43:47.635Z,6.40
2023-02-11T22:46:18.745Z,6.95
2023-02-11T22:48:47.280Z,6.20
2023-02-11T22:51:17.573Z,6.57
2023-02-11T22:53:51.177Z,6.63
2023-02-11T22:56:19.399Z,6.47
2023-02-11T22:58:48.063Z,6.20
2023-02-11T23:01:16.894Z,6.93
2023-02-11T23:03:45.548Z,6.18
2023-02-11T23:06:13.521Z,6.68
2023-02-11T23:08:42.940Z,5.90
2023-02-11T23:11:14.029Z,6.28
2023-02-11T23:13:42.932Z,6.18
2023-02-11T23:16:13.665Z,6.35
2023-02-11T23:18:43.227Z,6.47
2023-02-11T23:21:13.518Z,5.72
2023-02-11T23:23:41.447Z,5.75
2023-02-11T23:26:12.691Z,6.32
2023-02-11T23:28:41.578Z,6.15
2023-02-11T23:31:15.267Z,7.22
2023-02-11T23:33:43.188Z,6.03
2023-02-11T23:36:11.483Z,16.80
2023-02-11T23:38:39.434Z,5.80
2023-02-11T23:41:07.372Z,5.38
2023-02-11T23:43:36.782Z,6.10
2023-02-11T23:46:05.197Z,5.25
2023-02-11T23:48:33.768Z,5.35
2023-02-11T23:51:01.738Z,5.60
2023-02-11T23:53:29.611Z,9.88
2023-02-11T23:55:57.622Z,5.47
2023-02-11T23:58:25.565Z,6.35
